Time;durP1;ratioP1;P1;durP2;ratioP2;P2;SDS_P1;SDS_P2;PMS_P1;PMS_P2;Temp;Humidity;BMP_temperature;BMP_pressure;BME280_temperature;BME280_humidity;BME280_pressure;Samples;Min_cycle;Max_cycle;Signal;HPM_P1;HPM_P2
2024/04/12 00:01:06;;;;;;;1.00;0.50;;;;;;;;;;2239540;26;20000;-71
2024/04/12 00:02:08;;;;;;;2.85;0.80;;;;;;;;;;2238780;26;20050;-70
2024/04/12 00:03:09;;;;;;;3.22;0.98;;;;;;;;;;2242808;26;19999;-75
2024/04/12 00:04:15;;;;;;;2.42;0.90;;;;;;;;;;2240659;26;20440;-71
2024/04/12 00:05:20;;;;;;;4.30;1.00;;;;;;;;;;2238333;26;20068;-77
2024/04/12 00:06:25;;;;;;;4.47;0.60;;;;;;;;;;2226129;26;20032;-77
2024/04/12 00:07:26;;;;;;;2.40;1.00;;;;;;;;;;2238105;26;20014;-76
2024/04/12 00:08:31;;;;;;;2.00;0.52;;;;;;;;;;2240649;26;20070;-77
2024/04/12 00:09:32;;;;;;;3.13;0.60;;;;;;;;;;2240549;26;20043;-70
2024/04/12 00:10:33;;;;;;;4.63;0.70;;;;;;;;;;2238414;26;20090;-74
2024/04/12 00:11:38;;;;;;;3.22;0.52;;;;;;;;;;2240352;26;20103;-75
2024/04/12 00:12:39;;;;;;;3.42;1.20;;;;;;;;;;2240704;26;20010;-73
2024/04/12 00:13:41;;;;;;;4.53;0.93;;;;;;;;;;2240300;26;19999;-71
2024/04/12 00:14:43;;;;;;;1.83;0.90;;;;;;;;;;2240400;26;19999;-70
2024/04/12 00:15:45;;;;;;;2.72;0.88;;;;;;;;;;2238771;26;20007;-70
2024/04/12 00:16:52;;;;;;;2.78;0.80;;;;;;;;;;2240463;26;20003;-78
2024/04/12 00:17:55;;;;;;;5.70;0.70;;;;;;;;;;2238299;26;20011;-77
2024/04/12 00:19:12;;;;;;;3.95;0.60;;;;;;;;;;2238276;26;20003;-70
2024/04/12 00:20:13;;;;;;;3.60;0.60;;;;;;;;;;2237532;26;20015;-70
2024/04/12 00:21:15;;;;;;;3.10;0.70;;;;;;;;;;2240489;26;20000;-71
2024/04/12 00:22:17;;;;;;;2.95;0.68;;;;;;;;;;2240446;26;20011;-71
2024/04/12 00:23:19;;;;;;;4.05;0.90;;;;;;;;;;2240312;26;19999;-72
2024/04/12 00:24:29;;;;;;;2.05;0.50;;;;;;;;;;2238361;26;20027;-70
2024/04/12 00:25:30;;;;;;;4.70;0.93;;;;;;;;;;2240217;26;20000;-71
2024/04/12 00:26:32;;;;;;;2.17;0.63;;;;;;;;;;2240330;26;20007;-70
2024/04/12 00:27:37;;;;;;;2.90;0.73;;;;;;;;;;2238508;26;20317;-70
2024/04/12 00:28:39;;;;;;;4.50;0.90;;;;;;;;;;2239336;26;20019;-70
2024/04/12 00:29:41;;;;;;;3.50;0.77;;;;;;;;;;2239431;26;20028;-70
2024/04/12 00:30:48;;;;;;;3.75;1.00;;;;;;;;;;2237352;26;20015;-69
2024/04/12 00:31:52;;;;;;;2.85;0.60;;;;;;;;;;2239462;26;20003;-69
2024/04/12 00:32:57;;;;;;;3.20;0.73;;;;;;;;;;2238253;26;20145;-70
2024/04/12 00:34:04;;;;;;;2.00;0.47;;;;;;;;;;2240325;26;20015;-70
2024/04/12 00:35:11;;;;;;;4.38;1.30;;;;;;;;;;2235405;26;20094;-71
2024/04/12 00:36:12;;;;;;;2.42;0.50;;;;;;;;;;2239436;26;20072;-73
2024/04/12 00:37:17;;;;;;;2.53;0.80;;;;;;;;;;2237849;26;19999;-71
2024/04/12 00:38:23;;;;;;;3.10;0.57;;;;;;;;;;2240490;26;20011;-69
2024/04/12 00:39:35;;;;;;;1.45;0.57;;;;;;;;;;2238328;26;20357;-70
2024/04/12 00:40:45;;;;;;;1.95;0.68;;;;;;;;;;2239290;26;20045;-70
2024/04/12 00:41:47;;;;;;;5.82;1.08;;;;;;;;;;2239244;26;20000;-72
2024/04/12 00:42:48;;;;;;;3.90;1.10;;;;;;;;;;2240297;26;20088;-69
2024/04/12 00:43:51;;;;;;;3.45;1.10;;;;;;;;;;2240362;26;20340;-73
2024/04/12 00:44:54;;;;;;;2.58;0.70;;;;;;;;;;2237264;26;20487;-71
2024/04/12 00:45:56;;;;;;;3.47;0.85;;;;;;;;;;2240565;26;20013;-70
2024/04/12 00:47:00;;;;;;;2.88;0.80;;;;;;;;;;2240683;26;19999;-69
2024/04/12 00:48:07;;;;;;;2.45;0.70;;;;;;;;;;2239240;26;20080;-69
2024/04/12 00:49:09;;;;;;;4.38;1.08;;;;;;;;;;2236897;26;20007;-71
2024/04/12 00:50:15;;;;;;;2.25;0.45;;;;;;;;;;2239566;26;19996;-77
2024/04/12 00:51:17;;;;;;;5.38;0.80;;;;;;;;;;2238585;26;19999;-72
2024/04/12 00:52:28;;;;;;;5.97;0.80;;;;;;;;;;2240491;26;20011;-71
2024/04/12 00:53:32;;;;;;;2.47;0.75;;;;;;;;;;2238625;26;20098;-70
2024/04/12 00:54:33;;;;;;;3.58;0.85;;;;;;;;;;2239675;26;20003;-69
2024/04/12 00:55:39;;;;;;;2.50;0.60;;;;;;;;;;2240471;26;20363;-70
2024/04/12 00:56:40;;;;;;;3.65;0.90;;;;;;;;;;2240433;26;20014;-69
2024/04/12 00:57:41;;;;;;;3.70;0.50;;;;;;;;;;2240887;26;20410;-75
2024/04/12 00:58:47;;;;;;;3.80;0.60;;;;;;;;;;2240094;26;20015;-75
2024/04/12 00:59:51;;;;;;;2.78;0.63;;;;;;;;;;2238780;26;20004;-71
2024/04/12 01:00:52;;;;;;;3.75;0.80;;;;;;;;;;2240240;26;20028;-69
2024/04/12 01:01:55;;;;;;;2.97;0.80;;;;;;;;;;2240095;26;19999;-69
2024/04/12 01:02:59;;;;;;;2.60;0.65;;;;;;;;;;2239031;26;20305;-68
2024/04/12 01:04:00;;;;;;;3.05;0.60;;;;;;;;;;2240147;26;20007;-76
2024/04/12 01:05:04;;;;;;;3.85;0.70;;;;;;;;;;2239183;26;20088;-73
2024/04/12 01:06:07;;;;;;;4.82;0.75;;;;;;;;;;2237510;26;20000;-69
2024/04/12 01:07:13;;;;;;;2.75;0.45;;;;;;;;;;2240110;26;20000;-70
2024/04/12 01:08:16;;;;;;;4.28;0.65;;;;;;;;;;2238143;26;20018;-74
2024/04/12 01:09:21;;;;;;;4.82;0.73;;;;;;;;;;2240172;26;20004;-72
2024/04/12 01:10:24;;;;;;;3.50;0.50;;;;;;;;;;2240208;26;20455;-76
2024/04/12 01:11:27;;;;;;;2.90;0.73;;;;;;;;;;2237893;26;20070;-70
2024/04/12 01:12:28;;;;;;;3.05;0.98;;;;;;;;;;2240041;26;20067;-74
2024/04/12 01:13:31;;;;;;;6.13;1.38;;;;;;;;;;2239870;26;20020;-74
2024/04/12 01:14:33;;;;;;;15.43;2.28;;;;;;;;;;2240133;26;19999;-69
2024/04/12 01:15:37;;;;;;;8.25;1.38;;;;;;;;;;2238083;26;20019;-73
2024/04/12 01:16:40;;;;;;;10.38;1.75;;;;;;;;;;2240207;26;20054;-70
2024/04/12 01:17:44;;;;;;;11.40;1.50;;;;;;;;;;2240176;26;20049;-73
2024/04/12 01:18:46;;;;;;;10.68;2.45;;;;;;;;;;2238223;26;20000;-70
2024/04/12 01:19:47;;;;;;;9.43;1.65;;;;;;;;;;2240093;26;20000;-73
2024/04/12 01:20:49;;;;;;;8.82;1.70;;;;;;;;;;2240348;26;19999;-71
2024/04/12 01:21:52;;;;;;;8.90;2.05;;;;;;;;;;2239998;26;20074;-70
2024/04/12 01:22:58;;;;;;;12.98;2.50;;;;;;;;;;2239783;26;20012;-66
2024/04/12 01:23:59;;;;;;;7.78;1.38;;;;;;;;;;2238830;26;19996;-71
2024/04/12 01:25:05;;;;;;;4.00;0.95;;;;;;;;;;2238082;26;20028;-70
2024/04/12 01:26:09;;;;;;;4.90;1.10;;;;;;;;;;2239259;26;20016;-70
2024/04/12 01:27:11;;;;;;;5.40;1.17;;;;;;;;;;2239437;26;20440;-74
2024/04/12 01:28:16;;;;;;;1.33;0.55;;;;;;;;;;2237923;26;20088;-76
2024/04/12 01:29:17;;;;;;;3.83;0.70;;;;;;;;;;2240259;26;20035;-78
2024/04/12 01:30:20;;;;;;;2.35;0.60;;;;;;;;;;2240020;26;19999;-69
2024/04/12 01:31:23;;;;;;;7.75;1.00;;;;;;;;;;2239950;26;20069;-77
2024/04/12 01:32:25;;;;;;;9.35;1.10;;;;;;;;;;2239609;26;20056;-76
2024/04/12 01:33:31;;;;;;;2.88;0.80;;;;;;;;;;2240161;26;20004;-70
2024/04/12 01:34:33;;;;;;;4.43;0.70;;;;;;;;;;2244122;26;19999;-70
2024/04/12 01:35:35;;;;;;;6.65;1.02;;;;;;;;;;2255400;26;19995;-70
2024/04/12 01:36:37;;;;;;;2.13;0.80;;;;;;;;;;2255625;26;20316;-70
2024/04/12 01:37:43;;;;;;;3.45;0.90;;;;;;;;;;2255390;26;20006;-71
2024/04/12 01:38:53;;;;;;;3.13;0.70;;;;;;;;;;2242550;26;20098;-70
2024/04/12 01:39:54;;;;;;;3.97;0.75;;;;;;;;;;2237539;26;20449;-69
2024/04/12 01:41:05;;;;;;;3.65;0.90;;;;;;;;;;2240155;26;20003;-71
2024/04/12 01:42:06;;;;;;;5.07;0.90;;;;;;;;;;2237863;26;20015;-70
2024/04/12 01:43:08;;;;;;;3.17;0.88;;;;;;;;;;2240087;26;20000;-72
2024/04/12 01:44:12;;;;;;;3.03;1.00;;;;;;;;;;2239015;26;20010;-69
2024/04/12 01:45:13;;;;;;;4.63;1.00;;;;;;;;;;2239312;26;20065;-72
2024/04/12 01:46:15;;;;;;;5.25;0.63;;;;;;;;;;2237557;26;20031;-71
2024/04/12 01:47:17;;;;;;;5.57;0.70;;;;;;;;;;2240124;26;20336;-73
2024/04/12 01:48:18;;;;;;;3.30;0.60;;;;;;;;;;2239809;26;19999;-69
2024/04/12 01:49:22;;;;;;;4.13;0.70;;;;;;;;;;2240002;26;20008;-73
2024/04/12 01:50:24;;;;;;;4.20;1.08;;;;;;;;;;2239962;26;20014;-73
2024/04/12 01:51:25;;;;;;;2.67;1.00;;;;;;;;;;2237793;26;20010;-72
2024/04/12 01:52:27;;;;;;;3.72;0.98;;;;;;;;;;2239983;26;20043;-71
2024/04/12 01:53:29;;;;;;;3.55;0.70;;;;;;;;;;2240453;26;20447;-72
2024/04/12 01:54:32;;;;;;;4.13;1.00;;;;;;;;;;2240300;26;20046;-69
2024/04/12 01:55:34;;;;;;;10.40;1.15;;;;;;;;;;2241091;26;20010;-70
2024/04/12 01:56:37;;;;;;;2.00;0.80;;;;;;;;;;2239960;26;20068;-69
2024/04/12 01:57:41;;;;;;;4.18;0.80;;;;;;;;;;2242111;26;20011;-69
2024/04/12 01:58:42;;;;;;;2.35;0.85;;;;;;;;;;2241643;26;19999;-69
2024/04/12 01:59:45;;;;;;;3.90;0.88;;;;;;;;;;2239378;26;20007;-69
2024/04/12 02:00:46;;;;;;;3.45;0.73;;;;;;;;;;2240967;26;19999;-73
2024/04/12 02:01:51;;;;;;;4.55;1.00;;;;;;;;;;2241002;26;20007;-71
2024/04/12 02:02:59;;;;;;;4.40;1.15;;;;;;;;;;2240634;26;20525;-74
2024/04/12 02:04:02;;;;;;;3.33;0.98;;;;;;;;;;2239624;26;20007;-71
2024/04/12 02:05:04;;;;;;;4.03;0.80;;;;;;;;;;2240275;26;20007;-70
2024/04/12 02:06:05;;;;;;;2.25;0.65;;;;;;;;;;2238200;26;20017;-72
2024/04/12 02:07:11;;;;;;;3.75;0.80;;;;;;;;;;2240207;26;20011;-75
2024/04/12 02:08:23;;;;;;;2.05;0.88;;;;;;;;;;2239878;26;20011;-75
2024/04/12 02:09:28;;;;;;;2.20;0.73;;;;;;;;;;2240093;26;20305;-73
2024/04/12 02:10:33;;;;;;;2.75;1.00;;;;;;;;;;2239930;26;20011;-72
2024/04/12 02:11:37;;;;;;;5.35;1.10;;;;;;;;;;2237563;26;20441;-75
2024/04/12 02:12:42;;;;;;;4.53;0.80;;;;;;;;;;2239930;26;20328;-70
2024/04/12 02:13:43;;;;;;;1.63;0.70;;;;;;;;;;2239699;26;20143;-70
2024/04/12 02:14:45;;;;;;;4.22;0.60;;;;;;;;;;2237447;26;20011;-74
2024/04/12 02:15:46;;;;;;;4.70;0.73;;;;;;;;;;2239945;26;19996;-75
2024/04/12 02:16:50;;;;;;;2.15;0.80;;;;;;;;;;2240106;26;20014;-70
2024/04/12 02:18:02;;;;;;;2.20;0.88;;;;;;;;;;2239835;26;20073;-72
2024/04/12 02:19:06;;;;;;;2.22;0.60;;;;;;;;;;2239699;26;20436;-70
2024/04/12 02:20:10;;;;;;;4.43;0.90;;;;;;;;;;2238546;26;20011;-74
2024/04/12 02:21:11;;;;;;;2.58;0.80;;;;;;;;;;2239842;26;19996;-74
2024/04/12 02:22:12;;;;;;;3.67;0.80;;;;;;;;;;2239750;26;20061;-70
2024/04/12 02:23:14;;;;;;;1.60;0.75;;;;;;;;;;2239860;26;20085;-74
2024/04/12 02:24:18;;;;;;;4.18;0.88;;;;;;;;;;2237745;26;20004;-75
2024/04/12 02:25:19;;;;;;;3.95;0.70;;;;;;;;;;2239513;26;19999;-72
2024/04/12 02:26:23;;;;;;;2.55;0.50;;;;;;;;;;2239755;26;20003;-71
2024/04/12 02:27:29;;;;;;;2.40;0.77;;;;;;;;;;2237387;26;20017;-71
2024/04/12 02:28:30;;;;;;;1.50;0.68;;;;;;;;;;2239999;26;20015;-75
2024/04/12 02:29:36;;;;;;;6.88;0.65;;;;;;;;;;2237210;26;20083;-74
2024/04/12 02:30:41;;;;;;;3.20;1.15;;;;;;;;;;2239279;26;20084;-72
2024/04/12 02:31:43;;;;;;;1.95;0.40;;;;;;;;;;2238564;26;20011;-71
2024/04/12 02:32:45;;;;;;;3.72;0.80;;;;;;;;;;2236601;26;20021;-70
2024/04/12 02:33:46;;;;;;;4.90;0.70;;;;;;;;;;2239836;26;19999;-70
2024/04/12 02:34:48;;;;;;;3.38;0.82;;;;;;;;;;2239899;26;20010;-73
2024/04/12 02:35:59;;;;;;;3.10;0.45;;;;;;;;;;2240748;26;20003;-72
2024/04/12 02:37:01;;;;;;;4.50;1.02;;;;;;;;;;2240370;26;20039;-73
2024/04/12 02:38:03;;;;;;;4.72;0.63;;;;;;;;;;2241340;26;20010;-73
2024/04/12 02:39:08;;;;;;;2.50;0.73;;;;;;;;;;2239197;26;20010;-71
2024/04/12 02:40:15;;;;;;;2.08;0.70;;;;;;;;;;2241190;26;20073;-73
2024/04/12 02:41:17;;;;;;;3.35;0.70;;;;;;;;;;2239481;26;20032;-74
2024/04/12 02:42:20;;;;;;;2.58;0.40;;;;;;;;;;2241494;26;20000;-76
2024/04/12 02:43:24;;;;;;;2.03;0.57;;;;;;;;;;2241287;26;20463;-75
2024/04/12 02:44:26;;;;;;;1.75;0.70;;;;;;;;;;2239205;26;20003;-73
2024/04/12 02:45:29;;;;;;;2.58;1.23;;;;;;;;;;2241261;26;20437;-74
2024/04/12 02:46:31;;;;;;;3.92;0.70;;;;;;;;;;2241420;26;20526;-72
2024/04/12 02:47:34;;;;;;;2.88;0.70;;;;;;;;;;2241317;26;20000;-75
2024/04/12 02:48:49;;;;;;;1.23;0.68;;;;;;;;;;2238853;26;20404;-76
2024/04/12 02:49:52;;;;;;;3.95;0.85;;;;;;;;;;2239774;26;19999;-72
2024/04/12 02:50:54;;;;;;;4.50;0.80;;;;;;;;;;2241311;26;20004;-73
2024/04/12 02:51:59;;;;;;;4.63;0.82;;;;;;;;;;2239446;26;20010;-72
2024/04/12 02:53:03;;;;;;;3.92;0.80;;;;;;;;;;2240534;26;20398;-70
2024/04/12 02:54:05;;;;;;;3.30;0.73;;;;;;;;;;2238153;26;19996;-74
2024/04/12 02:55:12;;;;;;;4.47;0.80;;;;;;;;;;2241101;26;20000;-72
2024/04/12 02:56:14;;;;;;;2.22;0.55;;;;;;;;;;2238873;26;20081;-76
2024/04/12 02:57:16;;;;;;;3.38;0.60;;;;;;;;;;2241228;26;20003;-74
2024/04/12 02:58:17;;;;;;;3.97;0.85;;;;;;;;;;2241190;26;20011;-74
2024/04/12 02:59:21;;;;;;;3.13;0.98;;;;;;;;;;2241024;26;20340;-73
2024/04/12 03:00:22;;;;;;;1.42;0.40;;;;;;;;;;2241082;26;20006;-73
2024/04/12 03:01:25;;;;;;;6.40;0.60;;;;;;;;;;2240035;26;20007;-73
2024/04/12 03:02:27;;;;;;;2.20;0.52;;;;;;;;;;2240400;26;20044;-69
2024/04/12 03:03:28;;;;;;;6.15;0.68;;;;;;;;;;2241078;26;20011;-71
2024/04/12 03:04:30;;;;;;;5.18;1.00;;;;;;;;;;2240823;26;20004;-70
2024/04/12 03:05:32;;;;;;;1.88;0.90;;;;;;;;;;2240977;26;19999;-71
2024/04/12 03:06:34;;;;;;;3.45;0.90;;;;;;;;;;2241075;26;20081;-73
2024/04/12 03:07:37;;;;;;;2.95;0.63;;;;;;;;;;2238254;26;19999;-71
2024/04/12 03:08:40;;;;;;;2.75;0.70;;;;;;;;;;2240445;26;20013;-71
2024/04/12 03:09:42;;;;;;;3.35;0.73;;;;;;;;;;2240944;26;20000;-70
2024/04/12 03:10:45;;;;;;;3.35;0.82;;;;;;;;;;2240982;26;20003;-72
2024/04/12 03:11:47;;;;;;;2.53;0.60;;;;;;;;;;2239193;26;20066;-72
2024/04/12 03:12:51;;;;;;;2.45;0.80;;;;;;;;;;2240973;26;20014;-77
2024/04/12 03:13:54;;;;;;;4.72;0.90;;;;;;;;;;2239467;26;20525;-72
2024/04/12 03:14:56;;;;;;;3.10;0.80;;;;;;;;;;2238041;26;20099;-72
2024/04/12 03:15:57;;;;;;;5.88;0.90;;;;;;;;;;2241221;26;20004;-71
2024/04/12 03:17:00;;;;;;;6.75;1.73;;;;;;;;;;2240937;26;20068;-74
2024/04/12 03:18:03;;;;;;;4.82;0.80;;;;;;;;;;2241149;26;20437;-70
2024/04/12 03:19:10;;;;;;;3.58;0.80;;;;;;;;;;2238815;26;20011;-74
2024/04/12 03:20:15;;;;;;;2.10;0.70;;;;;;;;;;2241042;26;20007;-78
2024/04/12 03:21:17;;;;;;;1.65;0.60;;;;;;;;;;2239249;26;19999;-69
2024/04/12 03:22:20;;;;;;;5.50;1.15;;;;;;;;;;2241025;26;20000;-71
2024/04/12 03:23:22;;;;;;;3.15;0.88;;;;;;;;;;2237056;26;20111;-75
2024/04/12 03:24:25;;;;;;;1.73;0.60;;;;;;;;;;2244474;26;20003;-75
2024/04/12 03:25:29;;;;;;;1.88;0.32;;;;;;;;;;2242863;26;19995;-73
2024/04/12 03:26:30;;;;;;;2.28;0.60;;;;;;;;;;2240716;26;20003;-72
2024/04/12 03:27:32;;;;;;;2.80;0.70;;;;;;;;;;2240522;26;19991;-73
2024/04/12 03:28:33;;;;;;;5.20;0.77;;;;;;;;;;2239943;26;20536;-72
2024/04/12 03:29:35;;;;;;;3.70;0.77;;;;;;;;;;2240116;26;20006;-69
2024/04/12 03:30:40;;;;;;;3.33;0.55;;;;;;;;;;2240337;26;19995;-71
2024/04/12 03:31:41;;;;;;;1.83;0.45;;;;;;;;;;2240684;26;20004;-69
2024/04/12 03:32:44;;;;;;;1.67;0.90;;;;;;;;;;2238580;26;20487;-74
2024/04/12 03:33:46;;;;;;;2.30;0.38;;;;;;;;;;2240950;26;20007;-75
2024/04/12 03:34:49;;;;;;;3.72;0.60;;;;;;;;;;2240907;26;20482;-70
2024/04/12 03:35:54;;;;;;;4.50;0.60;;;;;;;;;;2240964;26;20019;-74
2024/04/12 03:36:57;;;;;;;5.10;0.55;;;;;;;;;;2238861;26;20007;-68
2024/04/12 03:40:23;;;;;;;1.42;0.55;;;;;;;;;;2240986;26;20000;-70
2024/04/12 03:41:25;;;;;;;3.63;0.47;;;;;;;;;;2238616;26;20019;-69
2024/04/12 03:42:28;;;;;;;2.00;0.50;;;;;;;;;;2240012;26;19999;-70
2024/04/12 03:43:29;;;;;;;2.45;0.68;;;;;;;;;;2240107;26;19995;-74
2024/04/12 03:44:31;;;;;;;1.30;0.50;;;;;;;;;;2241854;26;20019;-72
2024/04/12 03:45:35;;;;;;;2.72;0.50;;;;;;;;;;2240691;26;19996;-72
2024/04/12 03:46:42;;;;;;;2.72;0.63;;;;;;;;;;2238598;26;20076;-72
2024/04/12 03:47:45;;;;;;;2.70;0.60;;;;;;;;;;2238697;26;20022;-71
2024/04/12 03:48:46;;;;;;;4.40;0.98;;;;;;;;;;2240936;26;19999;-71
2024/04/12 03:49:52;;;;;;;3.60;1.10;;;;;;;;;;2240818;26;20027;-70
2024/04/12 03:50:59;;;;;;;4.65;0.70;;;;;;;;;;2241145;26;20375;-72
2024/04/12 03:52:04;;;;;;;1.45;0.60;;;;;;;;;;2240173;26;20006;-70
2024/04/12 03:53:14;;;;;;;4.38;0.70;;;;;;;;;;2238822;26;20004;-73
2024/04/12 03:54:19;;;;;;;5.78;1.20;;;;;;;;;;2238739;26;20007;-72
2024/04/12 03:55:20;;;;;;;1.38;0.47;;;;;;;;;;2240886;26;19996;-70
2024/04/12 03:56:27;;;;;;;1.48;0.50;;;;;;;;;;2240003;26;20015;-69
2024/04/12 03:57:29;;;;;;;2.17;0.60;;;;;;;;;;2237365;26;19996;-71
2024/04/12 03:58:30;;;;;;;2.75;0.70;;;;;;;;;;2239746;26;20004;-68
2024/04/12 03:59:34;;;;;;;3.15;0.70;;;;;;;;;;2240508;26;20014;-72
2024/04/12 04:00:38;;;;;;;1.73;0.60;;;;;;;;;;2239114;26;20077;-74
2024/04/12 04:01:44;;;;;;;1.92;0.50;;;;;;;;;;2238739;26;20014;-70
2024/04/12 04:02:48;;;;;;;2.72;0.93;;;;;;;;;;2238237;26;20076;-72
2024/04/12 04:03:49;;;;;;;1.63;0.50;;;;;;;;;;2240641;26;20050;-73
2024/04/12 04:04:50;;;;;;;1.90;0.70;;;;;;;;;;2240465;26;20041;-65
2024/04/12 04:05:53;;;;;;;3.58;0.80;;;;;;;;;;2240754;26;20011;-70
2024/04/12 04:06:55;;;;;;;2.95;0.65;;;;;;;;;;2238409;26;20344;-66
2024/04/12 04:07:56;;;;;;;2.00;0.60;;;;;;;;;;2240633;26;20027;-67
2024/04/12 04:08:57;;;;;;;2.90;0.80;;;;;;;;;;2240743;26;20000;-65
2024/04/12 04:09:59;;;;;;;2.05;0.55;;;;;;;;;;2240725;26;20455;-74
2024/04/12 04:11:02;;;;;;;2.97;0.55;;;;;;;;;;2240443;26;20075;-71
2024/04/12 04:12:05;;;;;;;4.35;0.68;;;;;;;;;;2240641;26;19999;-67
2024/04/12 04:13:07;;;;;;;1.50;0.57;;;;;;;;;;2238651;26;20010;-70
2024/04/12 04:14:10;;;;;;;3.15;0.80;;;;;;;;;;2240737;26;20018;-67
2024/04/12 04:15:14;;;;;;;4.22;0.95;;;;;;;;;;2240598;26;20013;-73
2024/04/12 04:16:18;;;;;;;1.73;0.57;;;;;;;;;;2238632;26;20322;-73
2024/04/12 04:17:29;;;;;;;4.57;0.70;;;;;;;;;;2240388;26;20039;-73
2024/04/12 04:18:32;;;;;;;3.47;0.60;;;;;;;;;;2239889;26;20477;-68
2024/04/12 04:19:39;;;;;;;3.88;0.98;;;;;;;;;;2240679;26;20008;-70
2024/04/12 04:20:42;;;;;;;5.53;0.70;;;;;;;;;;2240223;26;20010;-71
2024/04/12 04:21:44;;;;;;;3.13;0.80;;;;;;;;;;2240937;26;20003;-72
2024/04/12 04:22:49;;;;;;;2.97;0.50;;;;;;;;;;2238462;26;20007;-71
2024/04/12 04:23:50;;;;;;;4.07;1.02;;;;;;;;;;2239796;26;20003;-71
2024/04/12 04:24:52;;;;;;;4.78;0.73;;;;;;;;;;2238325;26;20081;-71
2024/04/12 04:25:53;;;;;;;2.05;0.60;;;;;;;;;;2239722;26;20447;-70
2024/04/12 04:26:56;;;;;;;1.45;0.68;;;;;;;;;;2238545;26;20004;-70
2024/04/12 04:27:57;;;;;;;2.15;0.70;;;;;;;;;;2240585;26;19996;-71
2024/04/12 04:29:00;;;;;;;2.75;1.17;;;;;;;;;;2240894;26;20010;-70
2024/04/12 04:30:02;;;;;;;3.33;0.65;;;;;;;;;;2240669;26;20007;-69
2024/04/12 04:31:07;;;;;;;2.75;0.80;;;;;;;;;;2240116;26;20076;-69
2024/04/12 04:32:09;;;;;;;2.28;0.85;;;;;;;;;;2238428;26;20008;-69
2024/04/12 04:33:13;;;;;;;3.17;0.85;;;;;;;;;;2226065;26;20000;-68
2024/04/12 04:34:14;;;;;;;4.55;0.60;;;;;;;;;;2237603;26;20007;-70
2024/04/12 04:35:16;;;;;;;3.63;0.60;;;;;;;;;;2240886;26;20014;-70
2024/04/12 04:36:21;;;;;;;3.08;0.80;;;;;;;;;;2240514;26;20057;-66
2024/04/12 04:37:26;;;;;;;5.32;0.88;;;;;;;;;;2238554;26;20043;-66
2024/04/12 04:38:28;;;;;;;2.75;0.70;;;;;;;;;;2238251;26;20014;-66
2024/04/12 04:39:29;;;;;;;1.63;0.57;;;;;;;;;;2240580;26;20003;-69
2024/04/12 04:40:35;;;;;;;4.25;0.75;;;;;;;;;;2240726;26;19995;-64
2024/04/12 04:41:38;;;;;;;4.30;0.80;;;;;;;;;;2236383;26;19999;-69
2024/04/12 04:42:43;;;;;;;3.13;0.63;;;;;;;;;;2240569;26;20010;-66
2024/04/12 04:43:46;;;;;;;3.15;0.60;;;;;;;;;;2238203;26;20019;-67
2024/04/12 04:44:47;;;;;;;2.30;0.50;;;;;;;;;;2240417;26;20010;-68
2024/04/12 04:45:49;;;;;;;5.78;0.77;;;;;;;;;;2240243;26;20023;-71
2024/04/12 04:46:52;;;;;;;2.38;0.60;;;;;;;;;;2240622;26;20000;-67
2024/04/12 04:47:53;;;;;;;4.57;0.90;;;;;;;;;;2240434;26;20000;-69
2024/04/12 04:48:54;;;;;;;3.03;0.80;;;;;;;;;;2238239;26;20011;-69
2024/04/12 04:49:56;;;;;;;4.30;0.77;;;;;;;;;;2240391;26;20007;-68
2024/04/12 04:50:58;;;;;;;2.80;0.80;;;;;;;;;;2240576;26;20006;-69
2024/04/12 04:52:07;;;;;;;3.50;0.70;;;;;;;;;;2240481;26;20077;-66
2024/04/12 04:53:11;;;;;;;5.95;1.13;;;;;;;;;;2239556;26;20015;-68
2024/04/12 04:54:13;;;;;;;2.28;0.70;;;;;;;;;;2239657;26;19995;-67
2024/04/12 04:55:15;;;;;;;1.58;0.70;;;;;;;;;;2238257;26;20454;-69
2024/04/12 04:56:24;;;;;;;2.38;0.82;;;;;;;;;;2240276;26;20312;-69
2024/04/12 04:57:29;;;;;;;5.97;0.93;;;;;;;;;;2238389;26;20003;-69
2024/04/12 04:58:34;;;;;;;1.38;0.80;;;;;;;;;;2236891;26;19996;-69
2024/04/12 04:59:35;;;;;;;2.55;0.75;;;;;;;;;;2235314;26;20014;-69
2024/04/12 05:00:40;;;;;;;7.65;0.95;;;;;;;;;;2233555;26;20015;-68
2024/04/12 05:01:48;;;;;;;3.38;1.00;;;;;;;;;;2239167;26;20011;-69
2024/04/12 05:02:50;;;;;;;2.85;0.93;;;;;;;;;;2235227;26;19999;-68
2024/04/12 05:03:52;;;;;;;1.75;0.60;;;;;;;;;;2236549;26;20081;-67
2024/04/12 05:04:55;;;;;;;2.38;0.70;;;;;;;;;;2238003;26;20000;-72
2024/04/12 05:05:56;;;;;;;2.15;0.85;;;;;;;;;;2238018;26;20317;-69
2024/04/12 05:06:58;;;;;;;3.05;0.95;;;;;;;;;;2238455;26;20019;-70
2024/04/12 05:08:02;;;;;;;3.75;1.10;;;;;;;;;;2237424;26;20019;-73
2024/04/12 05:09:04;;;;;;;3.38;0.77;;;;;;;;;;2224788;26;20038;-73
2024/04/12 05:10:14;;;;;;;2.60;0.80;;;;;;;;;;2219507;26;20663;-72
2024/04/12 05:11:15;;;;;;;3.13;0.93;;;;;;;;;;2236757;26;20010;-74
2024/04/12 05:12:17;;;;;;;3.88;0.77;;;;;;;;;;2236342;26;20000;-73
2024/04/12 05:13:18;;;;;;;1.95;0.80;;;;;;;;;;2238080;26;20000;-73
2024/04/12 05:16:42;;;;;;;2.55;0.70;;;;;;;;;;2237404;26;20023;-74
2024/04/12 05:17:43;;;;;;;2.50;0.70;;;;;;;;;;2237481;26;20356;-74
2024/04/12 05:18:47;;;;;;;2.97;0.88;;;;;;;;;;2236045;26;20004;-74
2024/04/12 05:19:49;;;;;;;3.10;0.77;;;;;;;;;;2236791;26;20000;-73
2024/04/12 05:20:51;;;;;;;3.78;1.15;;;;;;;;;;2236976;26;20098;-74
2024/04/12 05:21:52;;;;;;;3.63;1.23;;;;;;;;;;2237977;26;19995;-75
2024/04/12 05:23:00;;;;;;;2.67;0.90;;;;;;;;;;2238540;26;20000;-73
2024/04/12 05:24:02;;;;;;;5.68;1.00;;;;;;;;;;2237503;26;20004;-76
2024/04/12 05:25:05;;;;;;;3.13;1.17;;;;;;;;;;2238180;26;20002;-76
2024/04/12 05:26:06;;;;;;;5.55;1.10;;;;;;;;;;2234074;26;20007;-77
2024/04/12 05:27:11;;;;;;;2.13;0.75;;;;;;;;;;2238227;26;20035;-76
2024/04/12 05:28:12;;;;;;;5.97;1.20;;;;;;;;;;2238082;26;20018;-78
2024/04/12 05:29:14;;;;;;;4.75;1.00;;;;;;;;;;2238243;26;20109;-77
2024/04/12 05:30:17;;;;;;;2.97;0.93;;;;;;;;;;2235286;26;20003;-77
2024/04/12 05:31:20;;;;;;;2.35;0.85;;;;;;;;;;2224043;26;20016;-77
2024/04/12 05:32:23;;;;;;;3.95;0.98;;;;;;;;;;2208327;26;20011;-76
2024/04/12 05:33:25;;;;;;;3.17;0.93;;;;;;;;;;2221854;26;20008;-75
2024/04/12 05:34:27;;;;;;;3.38;1.33;;;;;;;;;;2239074;26;20021;-75
2024/04/12 05:35:30;;;;;;;3.72;1.42;;;;;;;;;;2238199;26;20072;-77
2024/04/12 05:36:33;;;;;;;4.13;1.02;;;;;;;;;;2239191;26;20453;-77
2024/04/12 05:37:35;;;;;;;3.55;1.30;;;;;;;;;;2235662;26;20773;-78
2024/04/12 05:38:37;;;;;;;3.72;0.85;;;;;;;;;;2238636;26;20003;-77
2024/04/12 05:39:41;;;;;;;3.35;1.33;;;;;;;;;;2237323;26;20003;-74
2024/04/12 05:40:51;;;;;;;4.95;1.00;;;;;;;;;;2237488;26;20011;-82
2024/04/12 05:41:53;;;;;;;4.15;1.20;;;;;;;;;;2239328;26;19999;-80
2024/04/12 05:42:55;;;;;;;7.47;1.23;;;;;;;;;;2236086;26;20014;-79
2024/04/12 05:43:56;;;;;;;3.75;1.13;;;;;;;;;;2239425;26;20049;-75
2024/04/12 05:45:04;;;;;;;4.88;1.23;;;;;;;;;;2221047;26;20001;-79
2024/04/12 05:46:06;;;;;;;5.75;1.35;;;;;;;;;;2211183;26;20012;-74
2024/04/12 05:47:09;;;;;;;5.13;1.52;;;;;;;;;;2237873;26;19996;-78
2024/04/12 05:48:14;;;;;;;4.93;1.38;;;;;;;;;;2237697;26;20000;-77
2024/04/12 05:49:17;;;;;;;7.55;1.42;;;;;;;;;;2237207;26;20008;-74
2024/04/12 05:50:18;;;;;;;7.03;1.75;;;;;;;;;;2237526;26;19999;-77
2024/04/12 05:51:19;;;;;;;5.97;1.77;;;;;;;;;;2238319;26;20010;-75
2024/04/12 05:52:23;;;;;;;5.78;1.55;;;;;;;;;;2238819;26;20017;-74
2024/04/12 05:53:30;;;;;;;4.32;1.38;;;;;;;;;;2235385;26;20443;-74
2024/04/12 05:54:44;;;;;;;2.58;1.00;;;;;;;;;;2238730;26;20336;-76
2024/04/12 05:55:51;;;;;;;4.20;1.55;;;;;;;;;;2237040;26;20037;-77
2024/04/12 05:56:52;;;;;;;3.80;1.40;;;;;;;;;;2235877;26;20077;-76
2024/04/12 05:58:00;;;;;;;8.02;2.15;;;;;;;;;;2237342;26;19999;-76
2024/04/12 05:59:02;;;;;;;5.97;1.30;;;;;;;;;;2237493;26;21385;-75
2024/04/12 06:00:09;;;;;;;6.10;1.27;;;;;;;;;;2237945;26;20012;-76
2024/04/12 06:01:11;;;;;;;5.65;1.20;;;;;;;;;;2232497;26;20089;-74
2024/04/12 06:02:16;;;;;;;3.70;1.40;;;;;;;;;;2238568;26;19996;-78
2024/04/12 06:03:18;;;;;;;3.58;1.38;;;;;;;;;;2237586;26;20003;-77
2024/04/12 06:04:19;;;;;;;5.95;1.50;;;;;;;;;;2237399;26;19996;-78
2024/04/12 06:05:22;;;;;;;4.70;1.05;;;;;;;;;;2237891;26;20019;-75
2024/04/12 06:06:24;;;;;;;6.53;1.50;;;;;;;;;;2238682;26;20072;-78
2024/04/12 06:07:26;;;;;;;3.78;1.25;;;;;;;;;;2238107;26;20004;-77
2024/04/12 06:08:28;;;;;;;4.25;1.35;;;;;;;;;;2238252;26;20005;-75
2024/04/12 06:09:30;;;;;;;7.40;1.35;;;;;;;;;;2237476;26;20097;-79
2024/04/12 06:10:33;;;;;;;5.22;1.30;;;;;;;;;;2238681;26;20023;-78
2024/04/12 06:11:36;;;;;;;7.35;1.75;;;;;;;;;;2238569;26;20018;-77
2024/04/12 06:12:39;;;;;;;4.90;1.85;;;;;;;;;;2240922;26;20406;-77
2024/04/12 06:13:43;;;;;;;3.75;1.73;;;;;;;;;;2239823;26;20023;-77
2024/04/12 06:14:45;;;;;;;7.03;1.70;;;;;;;;;;2239530;26;20019;-77
2024/04/12 06:15:48;;;;;;;5.75;1.58;;;;;;;;;;2211354;26;20005;-77
2024/04/12 06:16:55;;;;;;;8.80;1.65;;;;;;;;;;2224651;26;20059;-77
2024/04/12 06:17:57;;;;;;;6.40;1.38;;;;;;;;;;2239392;26;20010;-76
2024/04/12 06:19:00;;;;;;;5.80;1.08;;;;;;;;;;2240213;26;19999;-76
2024/04/12 06:20:03;;;;;;;2.63;1.25;;;;;;;;;;2239914;26;20035;-76
2024/04/12 06:21:04;;;;;;;6.90;1.30;;;;;;;;;;2239154;26;20441;-72
2024/04/12 06:22:15;;;;;;;5.18;1.33;;;;;;;;;;2240031;26;20011;-74
2024/04/12 06:23:20;;;;;;;4.57;1.30;;;;;;;;;;2253570;26;20093;-73
2024/04/12 06:24:29;;;;;;;6.10;1.08;;;;;;;;;;2253590;26;20034;-75
2024/04/12 06:25:31;;;;;;;5.35;1.50;;;;;;;;;;2240334;26;19996;-76